Time,TemperatureF,DewpointF,PressureIn,WindDirection,WindDirectionDegrees,WindSpeedMPH,WindSpeedGustMPH,Humidity,HourlyPrecipIn,Conditions,Clouds,dailyrainin,SoftwareType,DateUTC
2013-06-11 00:02:00,51.6,42.5,30.01,SSW,194,1.0,2.0,71,0.00,OVC,FEW,0.00,WeatherDisplay:10.37,2013-06-11 07:02:00,
2013-06-11 00:17:00,52.0,43.2,30.01,South,191,0.0,2.0,72,0.00,OVC,FEW,0.00,WeatherDisplay:10.37,2013-06-11 07:17:00,
2013-06-11 00:32:00,52.1,43.4,30.01,SW,236,0.0,2.0,72,0.00,OVC,FEW,0.00,WeatherDisplay:10.37,2013-06-11 07:32:00,
2013-06-11 00:47:00,52.0,43.6,30.01,SSW,210,0.0,1.0,73,0.00,OVC,FEW,0.00,WeatherDisplay:10.37,2013-06-11 07:47:00,
2013-06-11 01:02:00,52.0,43.6,30.01,SW,224,0.0,2.0,73,0.00,OVC,FEW,0.00,WeatherDisplay:10.37,2013-06-11 08:02:00,
2013-06-11 01:17:00,51.8,43.8,30.01,South,170,0.0,2.0,74,0.00,OVC,FEW,0.00,WeatherDisplay:10.37,2013-06-11 08:17:00,
2013-06-11 01:32:00,51.6,44.0,30.01,SSW,200,0.0,1.0,75,0.00,OVC,FEW,0.00,WeatherDisplay:10.37,2013-06-11 08:32:00,
2013-06-11 01:47:00,51.6,44.0,30.01,South,190,0.0,0.0,75,0.00,OVC,FEW,0.00,WeatherDisplay:10.37,2013-06-11 08:47:00,
2013-06-11 02:02:00,51.6,44.0,30.01,SSW,208,0.0,2.0,75,0.00,OVC,FEW,0.00,WeatherDisplay:10.37,2013-06-11 09:02:00,
2013-06-11 02:17:00,51.6,44.0,30.01,South,184,0.0,2.0,75,0.00,OVC,FEW,0.00,WeatherDisplay:10.37,2013-06-11 09:17:00,
2013-06-11 02:32:00,51.6,44.0,30.01,South,182,0.0,1.0,75,0.00,OVC,FEW,0.00,WeatherDisplay:10.37,2013-06-11 09:32:00,
2013-06-11 02:47:00,51.6,44.3,30.01,South,189,0.0,1.0,76,0.00,OVC,FEW,0.00,WeatherDisplay:10.37,2013-06-11 09:47:00,
2013-06-11 03:02:00,51.6,44.3,30.01,South,173,0.0,1.0,76,0.00,OVC,FEW,0.00,WeatherDisplay:10.37,2013-06-11 10:02:00,
2013-06-11 03:17:00,51.4,44.1,30.01,South,185,0.0,2.0,76,0.00,OVC,FEW,0.00,WeatherDisplay:10.37,2013-06-11 10:17:00,
2013-06-11 03:32:00,51.4,44.1,30.01,South,169,0.0,1.0,76,0.00,OVC,FEW,0.00,WeatherDisplay:10.37,2013-06-11 10:32:00,
2013-06-11 03:47:00,51.3,44.3,30.01,South,186,0.0,0.0,77,0.00,OVC,FEW,0.00,WeatherDisplay:10.37,2013-06-11 10:47:00,
2013-06-11 04:02:00,51.4,44.5,30.01,South,180,0.0,2.0,77,0.00,BKN,FEW,0.00,WeatherDisplay:10.37,2013-06-11 11:02:00,
2013-06-11 04:17:00,51.4,44.5,30.01,South,173,0.0,1.0,77,0.00,BKN,FEW,0.00,WeatherDisplay:10.37,2013-06-11 11:17:00,
2013-06-11 04:32:00,51.4,44.5,30.02,SSE,160,0.0,1.0,77,0.00,BKN,FEW,0.00,WeatherDisplay:10.37,2013-06-11 11:32:00,
2013-06-11 04:47:00,51.3,44.3,30.02,SSE,166,0.0,0.0,77,0.00,BKN,FEW,0.00,WeatherDisplay:10.37,2013-06-11 11:47:00,
2013-06-11 05:02:00,51.1,44.5,30.02,South,188,0.0,3.0,78,0.00,OVC,FEW,0.00,WeatherDisplay:10.37,2013-06-11 12:02:00,
2013-06-11 05:17:00,51.3,44.6,30.03,South,169,0.0,2.0,78,0.02,RA,FEW,0.02,WeatherDisplay:10.37,2013-06-11 12:17:00,
2013-06-11 05:32:00,51.1,44.5,30.03,South,173,0.0,2.0,78,0.00,OVC,FEW,0.02,WeatherDisplay:10.37,2013-06-11 12:32:00,
2013-06-11 05:47:00,50.9,44.6,30.03,SSW,193,0.0,1.0,79,0.00,OVC,FEW,0.02,WeatherDisplay:10.37,2013-06-11 12:47:00,
2013-06-11 06:02:00,51.0,44.8,30.03,South,190,0.0,3.0,79,0.00,OVC,FEW,0.02,WeatherDisplay:10.37,2013-06-11 13:02:00,
2013-06-11 06:17:00,51.1,44.8,30.03,SSW,198,0.0,3.0,79,0.00,OVC,FEW,0.02,WeatherDisplay:10.37,2013-06-11 13:17:00,
2013-06-11 06:32:00,51.5,45.6,30.04,SSW,209,1.0,3.0,80,0.00,OVC,FEW,0.02,WeatherDisplay:10.37,2013-06-11 13:32:00,
2013-06-11 06:47:00,52.2,46.2,30.04,SSW,210,0.0,2.0,80,0.00,OVC,FEW,0.02,WeatherDisplay:10.37,2013-06-11 13:47:00,
2013-06-11 07:02:00,52.3,46.4,30.04,South,172,0.0,2.0,80,0.00,BKN,FEW,0.02,WeatherDisplay:10.37,2013-06-11 14:02:00,
2013-06-11 07:17:00,52.3,46.4,30.03,SSW,199,0.0,2.0,80,0.00,BKN,FEW,0.02,WeatherDisplay:10.37,2013-06-11 14:17:00,
2013-06-11 07:32:00,53.9,47.9,30.04,South,187,0.0,4.0,80,0.00,BKN,FEW,0.02,WeatherDisplay:10.37,2013-06-11 14:32:00,
2013-06-11 07:47:00,56.3,49.5,30.04,South,189,0.0,3.0,78,0.00,BKN,FEW,0.02,WeatherDisplay:10.37,2013-06-11 14:47:00,
2013-06-11 08:02:00,56.4,49.3,30.04,SSW,202,1.0,5.0,77,0.00,-RA,FEW,0.02,WeatherDisplay:10.37,2013-06-11 15:02:00,
2013-06-11 08:17:00,56.5,48.6,30.05,SW,236,0.0,5.0,75,0.00,-RA,FEW,0.02,WeatherDisplay:10.37,2013-06-11 15:17:00,
2013-06-11 08:32:00,56.5,48.6,30.05,SW,222,0.0,4.0,75,0.02,-RA,FEW,0.04,WeatherDisplay:10.37,2013-06-11 15:32:00,
2013-06-11 08:47:00,56.3,48.8,30.05,SSW,207,2.0,5.0,76,0.00,-RA,FEW,0.04,WeatherDisplay:10.37,2013-06-11 15:47:00,
2013-06-11 09:02:00,59.9,52.3,30.05,South,180,2.0,6.0,76,0.00,OVC,FEW,0.04,WeatherDisplay:10.37,2013-06-11 16:02:00,
2013-06-11 09:17:00,62.4,53.3,30.05,South,170,2.0,6.0,72,0.00,OVC,FEW,0.04,WeatherDisplay:10.37,2013-06-11 16:17:00,
2013-06-11 09:32:00,64.5,53.7,30.05,SSW,207,1.0,9.0,68,0.00,OVC,FEW,0.04,WeatherDisplay:10.37,2013-06-11 16:32:00,
2013-06-11 09:47:00,63.8,51.4,30.05,WSW,255,6.0,9.0,64,0.00,OVC,FEW,0.04,WeatherDisplay:10.37,2013-06-11 16:47:00,
2013-06-11 10:02:00,60.6,49.6,30.05,WSW,240,2.0,7.0,67,0.00,OVC,FEW,0.04,WeatherDisplay:10.37,2013-06-11 17:02:00,
2013-06-11 10:17:00,60.7,50.5,30.06,WSW,256,1.0,5.0,69,0.00,OVC,FEW,0.04,WeatherDisplay:10.37,2013-06-11 17:17:00,
2013-06-11 10:32:00,61.2,50.5,30.06,WSW,250,2.0,7.0,68,0.00,OVC,FEW,0.04,WeatherDisplay:10.37,2013-06-11 17:32:00,
2013-06-11 10:47:00,64.2,52.6,30.06,WSW,241,2.0,8.0,66,0.00,OVC,FEW,0.04,WeatherDisplay:10.37,2013-06-11 17:47:00,
2013-06-11 11:02:00,66.0,52.6,30.06,SSW,211,3.0,11.0,62,0.00,SCT,FEW,0.04,WeatherDisplay:10.37,2013-06-11 18:02:00,
2013-06-11 11:17:00,69.1,54.1,30.06,SW,224,2.0,8.0,59,0.00,SCT,FEW,0.04,WeatherDisplay:10.37,2013-06-11 18:17:00,
2013-06-11 11:32:00,71.2,53.7,30.06,SSW,205,1.0,7.0,54,0.00,SCT,FEW,0.04,WeatherDisplay:10.37,2013-06-11 18:32:00,
2013-06-11 11:47:00,70.3,51.9,30.07,WSW,240,3.0,11.0,52,0.00,SCT,FEW,0.04,WeatherDisplay:10.37,2013-06-11 18:47:00,
2013-06-11 12:02:00,66.2,48.6,30.07,West,267,3.0,8.0,53,0.00,OVC,FEW,0.04,WeatherDisplay:10.37,2013-06-11 19:02:00,
2013-06-11 12:17:00,68.6,51.8,30.07,SW,236,3.0,12.0,55,0.00,OVC,FEW,0.04,WeatherDisplay:10.37,2013-06-11 19:17:00,
2013-06-11 12:32:00,68.4,51.1,30.07,WSW,252,2.0,8.0,54,0.00,OVC,FEW,0.04,WeatherDisplay:10.37,2013-06-11 19:32:00,
2013-06-11 12:47:00,66.4,49.2,30.09,SW,217,2.0,8.0,54,0.00,OVC,FEW,0.04,WeatherDisplay:10.37,2013-06-11 19:47:00,
2013-06-11 13:02:00,67.6,51.8,30.08,SSW,202,2.0,11.0,57,0.00,BKN,FEW,0.04,WeatherDisplay:10.37,2013-06-11 20:02:00,
2013-06-11 13:17:00,66.0,49.4,30.09,WSW,248,1.0,14.0,55,0.00,BKN,FEW,0.04,WeatherDisplay:10.37,2013-06-11 20:17:00,
2013-06-11 13:32:00,65.8,49.2,30.08,WSW,250,3.0,9.0,55,0.00,BKN,FEW,0.04,WeatherDisplay:10.37,2013-06-11 20:32:00,
2013-06-11 13:47:00,64.8,49.6,30.08,SSW,203,1.0,10.0,58,0.00,BKN,FEW,0.04,WeatherDisplay:10.37,2013-06-11 20:47:00,
2013-06-11 14:02:00,66.9,50.2,30.09,WSW,241,6.0,12.0,55,0.00,BKN,FEW,0.04,WeatherDisplay:10.37,2013-06-11 21:02:00,
2013-06-11 14:17:00,68.3,51.0,30.09,South,185,3.0,9.0,54,0.00,BKN,FEW,0.04,WeatherDisplay:10.37,2013-06-11 21:17:00,
2013-06-11 14:32:00,68.4,51.1,30.09,SSW,212,2.0,8.0,54,0.00,BKN,FEW,0.04,WeatherDisplay:10.37,2013-06-11 21:32:00,
2013-06-11 14:47:00,66.8,48.6,30.10,WSW,247,1.0,12.0,52,0.00,BKN,FEW,0.04,WeatherDisplay:10.37,2013-06-11 21:47:00,
2013-06-11 15:02:00,65.5,49.4,30.10,SSW,203,3.0,12.0,56,0.00,FEW,FEW,0.04,WeatherDisplay:10.37,2013-06-11 22:02:00,
2013-06-11 15:17:00,63.6,49.4,30.11,SSW,204,1.0,9.0,60,0.00,FEW,FEW,0.04,WeatherDisplay:10.37,2013-06-11 22:17:00,
2013-06-11 15:32:00,62.9,49.7,30.11,SW,223,0.0,4.0,62,0.00,FEW,FEW,0.04,WeatherDisplay:10.37,2013-06-11 22:32:00,
2013-06-11 15:47:00,63.0,50.2,30.11,South,182,2.0,10.0,63,0.00,FEW,FEW,0.04,WeatherDisplay:10.37,2013-06-11 22:47:00,
2013-06-11 16:02:00,64.2,50.5,30.11,SW,222,2.0,6.0,61,0.00,BKN,FEW,0.04,WeatherDisplay:10.37,2013-06-11 23:02:00,
2013-06-11 16:17:00,64.6,49.5,30.11,West,263,3.0,9.0,58,0.00,BKN,FEW,0.04,WeatherDisplay:10.37,2013-06-11 23:17:00,
2013-06-11 16:32:00,63.7,48.6,30.12,SW,236,3.0,10.0,58,0.00,BKN,FEW,0.04,WeatherDisplay:10.37,2013-06-11 23:32:00,
2013-06-11 16:47:00,64.2,49.1,30.11,SW,229,2.0,13.0,58,0.00,BKN,FEW,0.04,WeatherDisplay:10.37,2013-06-11 23:47:00,
2013-06-11 17:02:00,64.0,49.4,30.11,SSW,202,2.0,9.0,59,0.00,BKN,FEW,0.04,WeatherDisplay:10.37,2013-06-12 00:02:00,
2013-06-11 17:17:00,64.0,48.5,30.12,WNW,288,5.0,15.0,57,0.00,BKN,FEW,0.04,WeatherDisplay:10.37,2013-06-12 00:17:00,
2013-06-11 17:32:00,63.3,48.3,30.11,SW,234,0.0,7.0,58,0.00,BKN,FEW,0.04,WeatherDisplay:10.37,2013-06-12 00:32:00,
2013-06-11 17:47:00,62.8,47.3,30.12,SSW,207,0.0,10.0,57,0.00,BKN,FEW,0.04,WeatherDisplay:10.37,2013-06-12 00:47:00,
2013-06-11 18:02:00,62.1,47.1,30.12,WSW,237,5.0,10.0,58,0.00,OVC,FEW,0.04,WeatherDisplay:10.37,2013-06-12 01:02:00,
2013-06-11 18:17:00,61.3,47.3,30.12,WSW,248,6.0,10.0,60,0.00,OVC,FEW,0.04,WeatherDisplay:10.37,2013-06-12 01:17:00,
2013-06-11 18:32:00,60.6,47.1,30.12,WSW,254,5.0,7.0,61,0.00,OVC,FEW,0.04,WeatherDisplay:10.37,2013-06-12 01:32:00,
2013-06-11 18:47:00,59.5,46.5,30.12,West,262,2.0,7.0,62,0.00,OVC,FEW,0.04,WeatherDisplay:10.37,2013-06-12 01:47:00,
2013-06-11 19:02:00,58.8,46.2,30.12,SW,215,2.0,12.0,63,0.00,OVC,FEW,0.04,WeatherDisplay:10.37,2013-06-12 02:02:00,
2013-06-11 19:17:00,58.8,46.7,30.12,SSW,194,1.0,10.0,64,0.00,OVC,FEW,0.04,WeatherDisplay:10.37,2013-06-12 02:17:00,
2013-06-11 19:32:00,58.8,47.1,30.12,SSW,201,1.0,8.0,65,0.00,OVC,FEW,0.04,WeatherDisplay:10.37,2013-06-12 02:32:00,
2013-06-11 19:47:00,58.1,46.8,30.13,South,188,1.0,5.0,66,0.00,OVC,FEW,0.04,WeatherDisplay:10.37,2013-06-12 02:47:00,
2013-06-11 20:02:00,58.2,47.3,30.12,SSW,208,0.0,3.0,67,0.00,SCT,FEW,0.04,WeatherDisplay:10.37,2013-06-12 03:02:00,
2013-06-11 20:17:00,58.8,47.5,30.12,SSW,209,0.0,4.0,66,0.00,SCT,FEW,0.04,WeatherDisplay:10.37,2013-06-12 03:17:00,
2013-06-11 20:32:00,57.9,46.6,30.13,SW,230,2.0,8.0,66,0.00,SCT,FEW,0.04,WeatherDisplay:10.37,2013-06-12 03:32:00,
2013-06-11 20:47:00,56.5,45.3,30.13,SW,220,0.0,5.0,66,0.00,SCT,FEW,0.04,WeatherDisplay:10.37,2013-06-12 03:47:00,
2013-06-11 21:02:00,55.2,44.1,30.13,South,175,0.0,5.0,66,0.00,OVC,FEW,0.04,WeatherDisplay:10.37,2013-06-12 04:02:00,
2013-06-11 21:17:00,54.3,44.0,30.14,South,169,0.0,2.0,68,0.00,OVC,FEW,0.04,WeatherDisplay:10.37,2013-06-12 04:17:00,
2013-06-11 21:32:00,53.8,43.5,30.14,SSE,155,0.0,2.0,68,0.00,OVC,FEW,0.04,WeatherDisplay:10.37,2013-06-12 04:32:00,
2013-06-11 21:47:00,53.4,43.5,30.14,SE,135,0.0,0.0,69,0.00,OVC,FEW,0.04,WeatherDisplay:10.37,2013-06-12 04:47:00,
2013-06-11 22:02:00,53.0,43.4,30.14,South,169,0.0,0.0,70,0.00,OVC,FEW,0.04,WeatherDisplay:10.37,2013-06-12 05:02:00,
2013-06-11 22:17:00,52.5,43.4,30.14,South,182,0.0,0.0,71,0.00,OVC,FEW,0.04,WeatherDisplay:10.37,2013-06-12 05:17:00,
2013-06-11 22:32:00,52.3,43.6,30.14,SSW,197,0.0,1.0,72,0.00,OVC,FEW,0.04,WeatherDisplay:10.37,2013-06-12 05:32:00,
2013-06-11 22:47:00,52.2,43.8,30.14,South,176,0.0,1.0,73,0.00,OVC,FEW,0.04,WeatherDisplay:10.37,2013-06-12 05:47:00,
2013-06-11 23:02:00,51.7,43.3,30.14,SSE,149,0.0,0.0,73,0.00,CLR,FEW,0.04,WeatherDisplay:10.37,2013-06-12 06:02:00,
2013-06-11 23:17:00,50.7,42.7,30.15,ESE,112,0.0,0.0,74,0.00,CLR,FEW,0.04,WeatherDisplay:10.37,2013-06-12 06:17:00,
2013-06-11 23:32:00,49.6,41.7,30.15,SE,143,0.0,0.0,74,0.00,CLR,FEW,0.04,WeatherDisplay:10.37,2013-06-12 06:32:00,
2013-06-11 23:47:00,48.9,41.3,30.15,SE,135,0.0,0.0,75,0.00,CLR,FEW,0.04,WeatherDisplay:10.37,2013-06-12 06:47:00,